Time;durP1;ratioP1;P1;durP2;ratioP2;P2;SDS_P1;SDS_P2;PMS_P1;PMS_P2;Temp;Humidity;BMP_temperature;BMP_pressure;BME280_temperature;BME280_humidity;BME280_pressure;Samples;Min_cycle;Max_cycle;Signal;HPM_P1;HPM_P2
2022/07/17 00:00:13;;;;;;;4.63;1.40;;;;;;;17.06;46.16;100675.00;12178781;19;20010;-78
2022/07/17 00:04:14;;;;;;;3.43;1.10;;;;;;;17.01;46.43;100675.00;12195718;19;20006;-77
2022/07/17 00:08:17;;;;;;;5.63;1.67;;;;;;;16.96;46.52;100674.13;12208456;19;20034;-77
2022/07/17 00:12:19;;;;;;;5.25;1.50;;;;;;;16.95;46.20;100676.03;12177684;19;20124;-77
2022/07/17 00:16:22;;;;;;;2.13;1.30;;;;;;;16.93;46.30;100680.22;12199164;19;20066;-77
2022/07/17 00:20:25;;;;;;;3.33;1.10;;;;;;;16.94;46.78;100673.56;12201426;19;20821;-77
2022/07/17 00:24:27;;;;;;;5.07;1.23;;;;;;;16.88;46.85;100669.06;12185312;19;20038;-76
2022/07/17 00:28:28;;;;;;;4.80;1.35;;;;;;;16.82;46.68;100662.63;12205250;19;20009;-77
2022/07/17 00:32:30;;;;;;;3.22;1.17;;;;;;;16.75;46.90;100660.06;12200408;19;20055;-77
2022/07/17 00:36:32;;;;;;;4.00;1.13;;;;;;;16.71;47.18;100667.25;12171137;19;20026;-77
2022/07/17 00:40:34;;;;;;;5.03;1.35;;;;;;;16.68;47.01;100661.41;12208224;19;20042;-77
2022/07/17 00:44:36;;;;;;;6.77;1.50;;;;;;;16.62;46.93;100653.03;12205895;19;20006;-76
2022/07/17 00:48:37;;;;;;;3.35;1.63;;;;;;;16.58;46.97;100651.06;12177247;19;20066;-77
2022/07/17 00:52:39;;;;;;;3.65;1.17;;;;;;;16.57;47.28;100663.31;12206749;19;20093;-77
2022/07/17 00:56:46;;;;;;;3.17;1.57;;;;;;;16.52;47.34;100657.72;12199135;19;20027;-76
2022/07/17 01:00:49;;;;;;;2.58;1.17;;;;;;;16.47;47.74;100661.28;12173423;19;20011;-76
2022/07/17 01:04:51;;;;;;;4.25;1.40;;;;;;;16.40;48.10;100658.75;12197836;19;20690;-76
2022/07/17 01:08:53;;;;;;;2.72;1.30;;;;;;;16.35;48.17;100663.44;12204707;19;20010;-77
2022/07/17 01:12:54;;;;;;;2.85;1.05;;;;;;;16.30;48.34;100672.59;12185468;19;20006;-77
2022/07/17 01:16:56;;;;;;;7.82;1.33;;;;;;;16.25;48.48;100675.31;12202858;19;20757;-78
2022/07/17 01:21:07;;;;;;;5.37;0.90;;;;;;;16.21;49.31;100667.75;12207350;19;20007;-76
2022/07/17 01:25:09;;;;;;;3.92;1.25;;;;;;;16.17;49.16;100665.53;12183718;19;20014;-77
2022/07/17 01:29:13;;;;;;;2.88;0.88;;;;;;;16.16;49.13;100663.03;12191740;19;20365;-76
2022/07/17 01:33:15;;;;;;;3.45;1.30;;;;;;;16.12;49.33;100661.84;12180667;19;20041;-77
2022/07/17 01:37:17;;;;;;;8.10;2.20;;;;;;;16.09;49.37;100665.16;12206101;19;20014;-77
2022/07/17 01:41:18;;;;;;;4.32;1.27;;;;;;;16.06;49.27;100660.13;12199981;19;21316;-76
2022/07/17 01:45:21;;;;;;;3.20;1.50;;;;;;;16.01;49.31;100663.75;12174772;19;20443;-77
2022/07/17 01:49:22;;;;;;;3.45;1.25;;;;;;;15.97;50.22;100658.97;12198136;19;20018;-76
2022/07/17 01:53:25;;;;;;;3.00;1.30;;;;;;;15.93;50.36;100653.09;12206215;19;20052;-77
2022/07/17 01:57:27;;;;;;;4.40;1.30;;;;;;;15.88;50.39;100655.81;12170377;19;20037;-76
2022/07/17 02:01:28;;;;;;;4.88;1.75;;;;;;;15.85;50.76;100654.41;12194656;19;20006;-77
2022/07/17 02:05:31;;;;;;;2.72;1.20;;;;;;;15.80;50.72;100657.16;12197837;19;20003;-77
2022/07/17 02:09:32;;;;;;;6.40;1.85;;;;;;;15.76;50.87;100658.78;12177246;19;20011;-76
2022/07/17 02:13:34;;;;;;;2.63;1.48;;;;;;;15.74;51.02;100658.22;12187649;19;20811;-77
2022/07/17 02:17:36;;;;;;;4.60;1.40;;;;;;;15.69;50.97;100666.50;12194122;19;20030;-76
2022/07/17 02:21:37;;;;;;;6.32;1.17;;;;;;;15.64;51.73;100667.25;12176514;19;20385;-76
2022/07/17 02:25:39;;;;;;;5.90;1.67;;;;;;;15.60;51.91;100663.31;12193686;19;20081;-77
2022/07/17 02:29:41;;;;;;;3.00;1.65;;;;;;;15.57;51.62;100663.00;12197930;19;20010;-76
2022/07/17 02:33:42;;;;;;;5.72;1.60;;;;;;;15.53;51.67;100661.84;12179799;19;20042;-78
2022/07/17 02:37:45;;;;;;;5.97;1.60;;;;;;;15.47;51.44;100669.31;12189980;19;20006;-76
2022/07/17 02:41:47;;;;;;;5.80;1.40;;;;;;;15.41;52.29;100662.03;12196797;19;20039;-76
2022/07/17 02:45:48;;;;;;;3.85;1.30;;;;;;;15.38;52.10;100670.88;12175485;19;20372;-77
2022/07/17 02:49:51;;;;;;;5.07;1.60;;;;;;;15.31;52.71;100667.44;12189217;19;20526;-77
2022/07/17 02:53:53;;;;;;;5.13;1.48;;;;;;;15.27;52.81;100669.91;12199388;19;20030;-77
2022/07/17 02:57:55;;;;;;;7.60;1.30;;;;;;;15.20;53.02;100664.56;12177724;19;20018;-76
2022/07/17 03:01:57;;;;;;;3.40;1.08;;;;;;;15.17;53.71;100669.78;12204581;19;20007;-78
2022/07/17 03:05:58;;;;;;;4.95;1.40;;;;;;;15.16;53.19;100671.72;12190982;19;20042;-76
2022/07/17 03:10:00;;;;;;;2.53;1.10;;;;;;;15.15;53.23;100666.44;12170738;19;20754;-77
2022/07/17 03:14:02;;;;;;;5.22;1.35;;;;;;;15.12;53.68;100653.09;12185597;19;20066;-78
2022/07/17 03:18:04;;;;;;;3.60;1.48;;;;;;;15.06;53.30;100652.19;12170949;19;20003;-77
2022/07/17 03:22:05;;;;;;;4.75;1.30;;;;;;;15.08;53.72;100654.69;12201172;19;20413;-78
2022/07/17 03:26:08;;;;;;;4.90;1.40;;;;;;;15.11;53.50;100659.72;12205318;19;20010;-77
2022/07/17 03:30:10;;;;;;;5.10;1.17;;;;;;;15.10;53.58;100650.56;12176562;19;20033;-77
2022/07/17 03:34:12;;;;;;;5.05;1.30;;;;;;;15.09;53.98;100657.22;12193515;19;20017;-77
2022/07/17 03:38:14;;;;;;;3.88;1.40;;;;;;;15.09;53.37;100654.44;12212606;19;20011;-78
2022/07/17 03:42:16;;;;;;;2.70;1.20;;;;;;;15.09;53.62;100661.94;12187516;19;20011;-77
2022/07/17 03:46:18;;;;;;;2.70;1.30;;;;;;;15.09;54.07;100653.59;12196045;19;20010;-78
2022/07/17 03:50:20;;;;;;;4.68;1.20;;;;;;;15.04;54.15;100652.41;12203985;19;20495;-77
2022/07/17 03:54:22;;;;;;;4.72;1.60;;;;;;;15.07;53.82;100664.13;12188616;19;20008;-77
2022/07/17 03:58:23;;;;;;;3.67;1.17;;;;;;;15.05;54.97;100664.38;12206516;19;20018;-77
2022/07/17 04:02:25;;;;;;;6.38;1.25;;;;;;;15.04;54.55;100666.31;12201730;19;20332;-77
2022/07/17 04:06:27;;;;;;;3.28;1.25;;;;;;;15.04;54.91;100660.75;12174711;19;20020;-76
2022/07/17 04:10:28;;;;;;;4.07;1.20;;;;;;;15.08;54.76;100665.78;12211115;19;20420;-77
2022/07/17 04:14:30;;;;;;;5.90;1.45;;;;;;;15.08;55.06;100661.09;12200644;19;20354;-77
2022/07/17 04:18:34;;;;;;;5.05;1.40;;;;;;;15.08;54.69;100661.09;12175903;19;20457;-77
2022/07/17 04:22:36;;;;;;;2.75;1.60;;;;;;;15.11;54.56;100666.13;12207880;19;20007;-77
2022/07/17 04:26:38;;;;;;;3.63;1.63;;;;;;;15.16;54.25;100676.44;12208722;19;20078;-76
2022/07/17 04:30:40;;;;;;;5.35;1.83;;;;;;;15.19;53.82;100679.53;12180046;19;20009;-77
2022/07/17 04:34:41;;;;;;;6.25;1.65;;;;;;;15.23;53.94;100679.88;12208391;19;20018;-76
2022/07/17 04:38:43;;;;;;;3.50;1.67;;;;;;;15.28;53.72;100686.28;12201008;19;20066;-77
2022/07/17 04:42:45;;;;;;;3.20;1.38;;;;;;;15.33;54.21;100688.31;12178441;19;20054;-76
2022/07/17 04:46:47;;;;;;;4.18;1.45;;;;;;;15.36;54.41;100696.13;12201449;19;20007;-76
2022/07/17 04:50:49;;;;;;;4.07;1.80;;;;;;;15.39;54.07;100690.03;12209220;19;20018;-78
2022/07/17 04:54:50;;;;;;;5.45;2.00;;;;;;;15.43;53.80;100698.69;12190084;19;20063;-77
2022/07/17 04:58:52;;;;;;;4.95;1.48;;;;;;;15.45;53.79;100697.34;12204766;19;20768;-78
2022/07/17 05:02:54;;;;;;;3.97;1.30;;;;;;;15.50;53.97;100705.72;12209443;19;20412;-77
2022/07/17 05:06:56;;;;;;;5.72;1.67;;;;;;;15.53;54.21;100709.06;12171537;19;20086;-77
2022/07/17 05:10:57;;;;;;;2.05;1.40;;;;;;;15.55;54.32;100715.22;12208834;19;20011;-77
2022/07/17 05:14:59;;;;;;;5.28;1.38;;;;;;;15.56;54.63;100716.91;12199400;19;20024;-77
2022/07/17 05:19:05;;;;;;;4.03;1.42;;;;;;;15.58;55.07;100718.28;12170724;19;20077;-79
2022/07/17 05:23:06;;;;;;;8.23;1.48;;;;;;;15.62;55.26;100718.63;12196812;19;20014;-77
2022/07/17 05:27:08;;;;;;;2.88;1.40;;;;;;;15.64;54.98;100724.75;12182183;19;20086;-78
2022/07/17 05:31:10;;;;;;;5.80;1.38;;;;;;;15.74;54.51;100718.50;12204749;19;20006;-77
2022/07/17 05:35:11;;;;;;;4.53;1.50;;;;;;;15.80;54.63;100725.81;12199060;19;20045;-77
2022/07/17 05:39:13;;;;;;;2.55;1.50;;;;;;;15.95;54.35;100731.50;12172929;19;20022;-76
2022/07/17 05:43:15;;;;;;;4.15;1.67;;;;;;;16.03;54.24;100724.63;12201661;19;20007;-78
2022/07/17 05:47:18;;;;;;;3.25;1.50;;;;;;;16.15;53.82;100737.25;12186824;19;20525;-78
2022/07/17 05:51:20;;;;;;;7.05;1.83;;;;;;;16.26;53.51;100738.16;12169631;19;20074;-76
2022/07/17 05:55:25;;;;;;;7.53;1.90;;;;;;;16.37;53.32;100737.16;12200158;19;20011;-79
2022/07/17 05:59:27;;;;;;;5.40;1.70;;;;;;;16.52;52.45;100735.59;12209756;19;20515;-78
2022/07/17 06:03:29;;;;;;;2.20;1.50;;;;;;;16.68;52.39;100740.16;12177214;19;20081;-79
2022/07/17 06:07:32;;;;;;;5.68;1.63;;;;;;;16.81;51.73;100739.75;12202965;19;19998;-78
2022/07/17 06:11:34;;;;;;;2.55;1.30;;;;;;;17.01;50.93;100744.59;12200757;19;20019;-78
2022/07/17 06:15:38;;;;;;;4.32;1.30;;;;;;;17.18;50.63;100749.13;12174738;19;20033;-79
2022/07/17 06:19:40;;;;;;;2.97;1.38;;;;;;;17.36;49.76;100758.94;12198304;19;20050;-79
2022/07/17 06:23:42;;;;;;;5.30;1.45;;;;;;;17.49;49.24;100761.22;12193406;19;20165;-78
2022/07/17 06:27:44;;;;;;;3.45;1.10;;;;;;;17.68;48.70;100768.00;12188658;19;20013;-78
2022/07/17 06:31:45;;;;;;;8.93;1.38;;;;;;;17.89;48.76;100773.66;12193166;19;20027;-79
2022/07/17 06:35:47;;;;;;;4.03;1.17;;;;;;;18.02;48.16;100775.91;12205288;19;20010;-79
2022/07/17 06:39:49;;;;;;;2.53;1.15;;;;;;;18.21;48.02;100782.63;12187128;19;20011;-79
2022/07/17 06:43:50;;;;;;;3.10;1.35;;;;;;;18.41;47.80;100787.41;12207481;19;20018;-79
2022/07/17 06:47:52;;;;;;;5.15;1.33;;;;;;;18.61;47.46;100782.94;12211028;19;20007;-80
2022/07/17 06:51:54;;;;;;;3.75;1.45;;;;;;;18.73;46.51;100768.69;12193596;19;20518;-80
2022/07/17 06:55:55;;;;;;;3.72;1.52;;;;;;;18.97;46.78;100769.78;12211814;19;20010;-79
2022/07/17 06:59:57;;;;;;;5.18;1.42;;;;;;;19.12;45.79;100764.16;12220294;19;20007;-78
2022/07/17 07:03:59;;;;;;;3.15;1.42;;;;;;;19.35;45.17;100761.84;12192944;19;20370;-79
2022/07/17 07:08:01;;;;;;;4.70;1.25;;;;;;;19.58;45.03;100760.38;12226917;19;20381;-78
2022/07/17 07:12:03;;;;;;;2.23;1.20;;;;;;;19.75;44.89;100762.81;12214293;19;20014;-78
2022/07/17 07:16:05;;;;;;;3.00;1.30;;;;;;;20.02;44.68;100757.63;12192063;19;20252;-79
2022/07/17 07:20:07;;;;;;;3.95;1.25;;;;;;;20.24;44.30;100764.75;12218038;19;20013;-79
2022/07/17 07:24:09;;;;;;;3.45;1.13;;;;;;;20.55;43.77;100764.53;12202101;19;20015;-77
2022/07/17 07:28:11;;;;;;;4.30;1.30;;;;;;;20.82;42.78;100758.38;12224612;19;20011;-79
2022/07/17 07:32:12;;;;;;;2.58;1.20;;;;;;;21.07;42.62;100757.31;12212852;19;20022;-79
2022/07/17 07:36:14;;;;;;;3.17;1.23;;;;;;;21.23;41.04;100747.56;12183710;19;20022;-78
2022/07/17 07:40:16;;;;;;;2.25;1.20;;;;;;;21.42;41.42;100750.47;12212714;19;20039;-78
2022/07/17 07:44:19;;;;;;;4.63;1.20;;;;;;;21.78;41.10;100756.44;12203955;19;20023;-78
2022/07/17 07:48:32;;;;;;;7.10;1.60;;;;;;;22.14;40.60;100755.06;12182422;19;20014;-78
2022/07/17 07:52:33;;;;;;;4.25;1.27;;;;;;;22.11;39.44;100755.69;12208925;19;20006;-79
2022/07/17 07:56:36;;;;;;;5.32;2.03;;;;;;;22.35;40.05;100755.63;12212075;19;20109;-79
2022/07/17 08:00:43;;;;;;;4.47;1.60;;;;;;;22.81;39.32;100763.22;12174174;19;20010;-79
2022/07/17 08:04:45;;;;;;;5.63;1.58;;;;;;;22.87;38.46;100762.00;12210794;19;20097;-81
2022/07/17 08:08:47;;;;;;;2.47;1.30;;;;;;;23.04;37.68;100753.84;12206702;19;20006;-81
2022/07/17 08:12:50;;;;;;;3.83;1.53;;;;;;;23.15;37.71;100751.66;12184842;19;20026;-79
2022/07/17 08:16:51;;;;;;;5.15;1.27;;;;;;;23.14;37.29;100744.34;12199045;19;20010;-79
2022/07/17 08:20:53;;;;;;;3.87;1.17;;;;;;;23.23;37.21;100739.69;12214473;19;20007;-80
2022/07/17 08:24:55;;;;;;;5.70;1.40;;;;;;;23.65;36.18;100741.31;12184206;19;20014;-79
2022/07/17 08:28:57;;;;;;;4.15;1.20;;;;;;;23.86;35.46;100726.84;12211246;19;20040;-80
2022/07/17 08:32:59;;;;;;;3.78;1.33;;;;;;;24.09;35.93;100731.34;12214068;19;20035;-80
2022/07/17 08:37:01;;;;;;;2.35;0.95;;;;;;;24.33;35.41;100733.00;12180072;19;20007;-80
2022/07/17 08:41:04;;;;;;;6.00;1.40;;;;;;;24.52;34.90;100742.13;12199368;19;20045;-80
2022/07/17 08:45:06;;;;;;;4.68;1.27;;;;;;;24.61;33.33;100744.19;12206845;19;20010;-78
2022/07/17 08:49:08;;;;;;;4.32;1.40;;;;;;;24.74;33.85;100727.16;12198085;19;20010;-80
2022/07/17 08:53:10;;;;;;;4.40;1.23;;;;;;;24.93;33.24;100726.94;12207935;19;20383;-79
2022/07/17 08:57:12;;;;;;;4.35;1.20;;;;;;;25.12;33.63;100723.88;12190023;19;20251;-80
2022/07/17 09:01:15;;;;;;;4.27;1.67;;;;;;;25.41;32.96;100720.53;12207529;19;20021;-80
2022/07/17 09:05:21;;;;;;;2.00;0.93;;;;;;;25.50;31.55;100725.38;12207197;19;20014;-80
2022/07/17 09:09:24;;;;;;;5.53;1.30;;;;;;;25.61;32.15;100712.59;12183887;19;20006;-81
2022/07/17 09:13:30;;;;;;;5.87;1.50;;;;;;;25.77;31.58;100719.44;12199745;19;20519;-82
2022/07/17 09:17:33;;;;;;;6.00;1.45;;;;;;;25.77;31.52;100716.59;12202755;19;20003;-84
2022/07/17 09:21:36;;;;;;;5.28;1.73;;;;;;;25.79;31.61;100716.25;12185989;19;20007;-83
2022/07/17 09:25:50;;;;;;;2.95;1.35;;;;;;;25.99;31.63;100726.94;12210416;19;20003;-83
2022/07/17 09:30:02;;;;;;;2.47;1.05;;;;;;;26.12;30.78;100725.97;12201353;19;20471;-83
2022/07/17 09:34:16;;;;;;;2.05;0.80;;;;;;;26.28;30.18;100720.63;12177595;19;20035;-84
2022/07/17 09:38:32;;;;;;;4.82;1.60;;;;;;;26.31;30.02;100719.13;12212043;19;20010;-81
2022/07/17 09:42:34;;;;;;;3.63;1.20;;;;;;;26.55;30.26;100715.81;12178792;19;20078;-82
2022/07/17 09:46:39;;;;;;;6.07;1.10;;;;;;;26.45;29.40;100713.31;12218455;19;20040;-85
2022/07/17 09:50:41;;;;;;;3.53;1.10;;;;;;;26.69;29.03;100716.44;12212337;19;20002;-84
2022/07/17 09:54:47;;;;;;;6.05;1.38;;;;;;;26.82;29.33;100711.72;12191524;19;20018;-84
2022/07/17 09:58:52;;;;;;;3.88;1.15;;;;;;;27.17;28.81;100708.81;12211427;19;20042;-83
2022/07/17 10:02:54;;;;;;;5.45;1.45;;;;;;;27.00;29.09;100715.31;12208422;19;20346;-81
2022/07/17 10:06:56;;;;;;;;;;;;;;;26.89;28.50;100723.38;12183660;19;20009;-83
2022/07/17 10:10:58;;;;;;;3.10;1.02;;;;;;;27.01;28.82;100722.66;12205056;19;20302;-81
2022/07/17 10:15:00;;;;;;;2.83;1.17;;;;;;;27.29;28.12;100706.06;12202754;19;20017;-82
2022/07/17 10:19:02;;;;;;;3.85;1.15;;;;;;;27.40;27.76;100698.88;12189831;19;20082;-82
2022/07/17 10:23:12;;;;;;;3.70;1.17;;;;;;;27.76;27.15;100697.47;12197380;19;20070;-83
2022/07/17 10:27:27;;;;;;;1.85;1.10;;;;;;;28.02;26.74;100705.78;12174157;19;20022;-82
2022/07/17 10:31:30;;;;;;;4.07;1.20;;;;;;;28.12;27.15;100696.84;12212501;19;20010;-83
2022/07/17 10:35:47;;;;;;;5.47;1.25;;;;;;;28.18;26.51;100705.97;12210689;19;20014;-82
2022/07/17 10:40:02;;;;;;;2.15;1.08;;;;;;;28.47;25.78;100707.06;12195638;19;20467;-83
2022/07/17 10:44:04;;;;;;;4.82;1.58;;;;;;;28.44;25.52;100702.91;12204898;19;20006;-82
2022/07/17 10:48:19;;;;;;;3.70;1.10;;;;;;;28.45;25.53;100707.41;12207554;19;20003;-82
2022/07/17 10:52:21;;;;;;;3.58;1.20;;;;;;;28.62;25.56;100703.56;12218761;19;20006;-83
2022/07/17 10:56:22;;;;;;;5.60;1.00;;;;;;;28.80;24.66;100699.34;12208408;19;20074;-82
2022/07/17 11:00:25;;;;;;;2.00;1.10;;;;;;;28.69;25.10;100700.16;12198048;19;20347;-82
2022/07/17 11:04:36;;;;;;;3.60;1.10;;;;;;;28.80;24.95;100698.53;12212025;19;20036;-82
2022/07/17 11:08:48;;;;;;;1.90;1.20;;;;;;;28.63;24.96;100694.69;12211002;19;20014;-83
2022/07/17 11:12:50;;;;;;;3.13;1.17;;;;;;;28.77;24.75;100693.56;12184406;19;20099;-82
2022/07/17 11:16:52;;;;;;;1.65;0.90;;;;;;;29.17;24.86;100704.25;12213182;19;20078;-82
2022/07/17 11:20:57;;;;;;;2.50;1.20;;;;;;;29.29;23.63;100695.75;12224397;19;20007;-82
2022/07/17 11:24:58;;;;;;;5.80;1.30;;;;;;;29.53;24.00;100692.88;12182890;19;20077;-81
2022/07/17 11:29:01;;;;;;;2.22;1.05;;;;;;;29.72;23.81;100691.47;12221848;19;20030;-83
2022/07/17 11:33:03;;;;;;;3.33;1.25;;;;;;;29.77;23.64;100684.69;12213009;19;20014;-80
2022/07/17 11:37:07;;;;;;;3.13;1.15;;;;;;;29.59;23.46;100681.28;12194565;19;20417;-81
2022/07/17 11:41:10;;;;;;;4.05;1.10;;;;;;;29.55;24.00;100678.34;12208172;19;20014;-80
2022/07/17 11:45:12;;;;;;;3.03;1.10;;;;;;;29.92;23.65;100679.09;12182312;19;20015;-81
2022/07/17 11:49:34;;;;;;;2.28;0.90;;;;;;;30.29;23.03;100681.84;12211258;19;20027;-80
2022/07/17 11:53:38;;;;;;;5.95;1.20;;;;;;;30.20;22.52;100678.28;12208279;19;20353;-80
2022/07/17 11:57:50;;;;;;;2.08;1.10;;;;;;;29.90;23.31;100672.97;12188448;19;20094;-81
2022/07/17 12:01:52;;;;;;;;;;;;;;;30.36;22.94;100676.34;12208612;19;20022;-81
2022/07/17 12:05:54;;;;;;;2.77;1.17;;;;;;;30.25;21.59;100672.34;12206164;19;20666;-82
2022/07/17 12:09:56;;;;;;;2.22;0.90;;;;;;;30.13;22.44;100664.72;12177466;19;20010;-81
2022/07/17 12:14:08;;;;;;;3.72;1.38;;;;;;;30.43;21.87;100668.03;12204598;19;20070;-80
2022/07/17 12:18:24;;;;;;;6.30;1.23;;;;;;;30.80;21.37;100664.16;12178744;19;20028;-82
2022/07/17 12:22:28;;;;;;;3.42;1.50;;;;;;;31.40;20.14;100664.84;12212604;19;20448;-81
2022/07/17 12:26:32;;;;;;;3.17;1.13;;;;;;;31.95;20.18;100674.28;12212594;19;20007;-80
2022/07/17 12:30:36;;;;;;;2.05;1.25;;;;;;;32.62;19.72;100662.59;12190438;19;20110;-81
2022/07/17 12:34:46;;;;;;;3.92;1.10;;;;;;;33.40;18.92;100656.56;12208520;19;20085;-81
2022/07/17 12:38:48;;;;;;;2.78;1.30;;;;;;;33.94;17.49;100652.47;12209991;19;20030;-81
2022/07/17 12:42:50;;;;;;;;;;;;;;;34.73;17.46;100653.41;12188991;19;20023;-81
2022/07/17 12:46:51;;;;;;;2.65;1.10;;;;;;;35.46;16.57;100642.16;12210839;19;20321;-80
2022/07/17 12:50:53;;;;;;;4.47;1.30;;;;;;;35.58;15.94;100649.63;12213094;19;20507;-82
2022/07/17 12:54:55;;;;;;;2.40;1.20;;;;;;;36.27;15.31;100637.25;12188263;19;20030;-82
2022/07/17 12:58:57;;;;;;;3.00;1.45;;;;;;;36.77;15.22;100634.47;12216353;19;20468;-81
2022/07/17 13:03:04;;;;;;;6.30;1.40;;;;;;;36.79;15.25;100616.81;12213812;19;20460;-81
2022/07/17 13:07:06;;;;;;;4.60;1.50;;;;;;;37.07;14.22;100628.34;12183777;19;20034;-83
2022/07/17 13:11:07;;;;;;;4.85;1.30;;;;;;;37.89;14.22;100618.69;12206595;19;20352;-82
2022/07/17 13:15:12;;;;;;;4.15;1.20;;;;;;;38.03;13.95;100615.78;12187968;19;20006;-82
2022/07/17 13:19:14;;;;;;;4.40;1.05;;;;;;;38.24;13.42;100602.53;12207693;19;20010;-81
2022/07/17 13:23:16;;;;;;;2.45;1.30;;;;;;;38.40;13.01;100605.72;12203601;19;20006;-82
2022/07/17 13:27:17;;;;;;;3.33;1.40;;;;;;;38.78;12.77;100596.41;12195643;19;20006;-83
2022/07/17 13:31:19;;;;;;;1.98;1.00;;;;;;;39.22;12.25;100592.72;12215284;19;20404;-82
2022/07/17 13:35:21;;;;;;;2.63;1.23;;;;;;;39.97;12.31;100596.81;12217111;19;20011;-81
2022/07/17 13:39:24;;;;;;;3.65;1.27;;;;;;;40.65;10.80;100605.34;12212487;19;20019;-83
2022/07/17 13:43:26;;;;;;;1.85;1.00;;;;;;;40.73;11.18;100591.59;12215796;19;20010;-81
2022/07/17 13:47:28;;;;;;;3.08;1.10;;;;;;;41.74;11.21;100590.56;12210118;19;20464;-82
2022/07/17 13:51:30;;;;;;;3.08;1.23;;;;;;;42.39;9.52;100581.25;12179052;19;20016;-83
2022/07/17 13:55:32;;;;;;;4.20;1.13;;;;;;;42.02;9.86;100587.06;12209294;19;20110;-83
2022/07/17 13:59:50;;;;;;;1.83;1.10;;;;;;;41.96;9.77;100582.25;12212476;19;20464;-81
2022/07/17 14:03:52;;;;;;;2.47;1.17;;;;;;;41.87;9.69;100577.84;12182965;19;20010;-82
2022/07/17 14:07:53;;;;;;;5.03;1.10;;;;;;;42.01;9.90;100582.53;12208121;19;20022;-82
2022/07/17 14:11:55;;;;;;;2.33;1.25;;;;;;;42.60;9.16;100580.75;12199604;19;20010;-82
2022/07/17 14:15:57;;;;;;;2.45;1.20;;;;;;;42.35;9.35;100566.88;12179672;19;20045;-83
2022/07/17 14:19:59;;;;;;;1.38;1.00;;;;;;;42.26;9.39;100557.97;12206365;19;20015;-83
2022/07/17 14:24:01;;;;;;;1.75;1.15;;;;;;;42.55;9.71;100561.81;12204072;19;20364;-83
2022/07/17 14:28:03;;;;;;;1.85;0.98;;;;;;;42.76;9.54;100554.69;12184597;19;20500;-83
2022/07/17 14:32:05;;;;;;;2.35;0.90;;;;;;;43.05;9.28;100561.81;12202047;19;20014;-82
2022/07/17 14:36:09;;;;;;;1.73;1.08;;;;;;;43.62;8.05;100555.25;12192884;19;20038;-82
2022/07/17 14:40:12;;;;;;;1.98;0.98;;;;;;;43.55;8.27;100557.53;12181767;19;20017;-82
2022/07/17 14:44:13;;;;;;;2.35;1.05;;;;;;;43.33;8.33;100554.41;12187399;19;20026;-82
2022/07/17 14:48:15;;;;;;;2.63;0.90;;;;;;;43.74;8.25;100559.44;12166723;19;20006;-84
2022/07/17 14:52:18;;;;;;;4.53;0.90;;;;;;;40.88;8.69;100551.72;12199022;19;20078;-82
2022/07/17 14:56:20;;;;;;;1.98;1.00;;;;;;;39.04;9.70;100545.97;12203526;19;20015;-81
2022/07/17 15:00:22;;;;;;;3.40;1.00;;;;;;;37.80;10.49;100543.56;12189151;19;20015;-81
2022/07/17 15:04:24;;;;;;;1.77;1.05;;;;;;;36.48;11.10;100541.75;12204766;19;20011;-81
2022/07/17 15:08:25;;;;;;;1.48;0.90;;;;;;;36.20;10.97;100539.66;12198981;19;20022;-81
2022/07/17 15:12:27;;;;;;;1.98;1.00;;;;;;;36.11;10.98;100531.44;12183179;19;20002;-81
2022/07/17 15:16:29;;;;;;;2.22;0.90;;;;;;;37.41;10.52;100527.28;12194472;19;20467;-81
2022/07/17 15:20:31;;;;;;;2.72;1.40;;;;;;;39.27;9.80;100525.97;12210622;19;20011;-81
2022/07/17 15:24:33;;;;;;;1.73;1.20;;;;;;;40.82;8.61;100518.81;12189673;19;20026;-81
2022/07/17 15:28:34;;;;;;;1.55;1.10;;;;;;;40.53;8.86;100519.28;12219554;19;20031;-81
2022/07/17 15:32:37;;;;;;;1.90;1.00;;;;;;;39.62;8.83;100518.13;12220736;19;20010;-81
2022/07/17 15:36:39;;;;;;;3.85;1.20;;;;;;;37.85;9.64;100514.38;12197126;19;21378;-81
2022/07/17 15:40:41;;;;;;;3.90;1.30;;;;;;;36.17;10.37;100509.75;12219996;19;20775;-82
2022/07/17 15:44:42;;;;;;;1.40;1.08;;;;;;;34.78;11.21;100511.97;12211066;19;20074;-81
2022/07/17 15:48:45;;;;;;;1.15;0.90;;;;;;;33.41;11.82;100506.84;12193546;19;20006;-81
2022/07/17 15:52:47;;;;;;;3.05;1.00;;;;;;;33.06;12.09;100501.47;12215418;19;20014;-80
2022/07/17 15:56:48;;;;;;;;;;;;;;;32.58;12.25;100490.53;12220030;19;20003;-81
2022/07/17 16:00:51;;;;;;;1.55;0.90;;;;;;;32.25;12.27;100493.19;12199502;19;19915;-80
2022/07/17 16:04:52;;;;;;;1.92;0.88;;;;;;;31.76;12.60;100495.53;12204321;19;20011;-80
2022/07/17 16:08:54;;;;;;;3.58;1.42;;;;;;;31.34;13.18;100498.28;12208766;19;20019;-81
2022/07/17 16:12:56;;;;;;;1.20;0.77;;;;;;;31.14;12.99;100494.59;12186228;19;20027;-81
2022/07/17 16:16:57;;;;;;;1.80;0.82;;;;;;;30.92;13.17;100481.13;12202716;19;20013;-81
2022/07/17 16:20:59;;;;;;;3.33;1.20;;;;;;;30.67;13.32;100478.50;12208413;19;20694;-81
2022/07/17 16:25:01;;;;;;;3.72;1.40;;;;;;;30.62;13.41;100475.91;12194331;19;20006;-81
2022/07/17 16:29:03;;;;;;;2.78;1.05;;;;;;;30.52;13.79;100471.63;12210797;19;20007;-81
2022/07/17 16:33:05;;;;;;;3.72;1.15;;;;;;;30.57;13.46;100473.34;12203807;19;20003;-80
2022/07/17 16:37:07;;;;;;;4.70;1.05;;;;;;;30.47;14.00;100471.09;12186039;19;20017;-80
2022/07/17 16:41:09;;;;;;;1.90;0.90;;;;;;;30.14;14.55;100467.41;12214603;19;20103;-80
2022/07/17 16:45:11;;;;;;;4.57;1.00;;;;;;;29.86;14.50;100461.78;12207045;19;20011;-81
2022/07/17 16:49:13;;;;;;;2.22;0.85;;;;;;;29.72;14.86;100459.38;12190342;19;20400;-81
2022/07/17 16:53:15;;;;;;;2.10;0.70;;;;;;;29.51;15.24;100456.75;12210846;19;20002;-80
2022/07/17 16:57:18;;;;;;;2.38;1.10;;;;;;;29.46;15.03;100453.34;12197307;19;20791;-80
2022/07/17 17:01:20;;;;;;;2.00;0.90;;;;;;;29.44;15.03;100442.34;12208317;19;20007;-80
2022/07/17 17:05:22;;;;;;;3.30;1.00;;;;;;;29.34;15.42;100442.88;12211018;19;20017;-81
2022/07/17 17:09:25;;;;;;;4.60;1.13;;;;;;;29.28;15.79;100441.47;12197696;19;20003;-80
2022/07/17 17:13:27;;;;;;;1.52;0.95;;;;;;;29.17;15.43;100443.16;12201422;19;20006;-80
2022/07/17 17:17:29;;;;;;;2.15;1.00;;;;;;;29.11;16.02;100439.75;12210241;19;20021;-80
2022/07/17 17:21:31;;;;;;;2.33;1.00;;;;;;;29.08;15.98;100444.13;12182461;19;20050;-81
2022/07/17 17:25:33;;;;;;;2.58;1.10;;;;;;;29.09;15.79;100444.97;12211085;19;20022;-80
2022/07/17 17:29:41;;;;;;;2.20;1.05;;;;;;;29.08;16.66;100446.16;12207644;19;20113;-80
2022/07/17 17:33:43;;;;;;;4.70;0.90;;;;;;;29.27;16.25;100443.50;12187016;19;20736;-81
2022/07/17 17:37:45;;;;;;;1.95;0.93;;;;;;;29.15;16.45;100439.84;12203068;19;20516;-80
2022/07/17 17:41:46;;;;;;;2.55;0.85;;;;;;;28.89;16.51;100438.28;12203825;19;20059;-80
2022/07/17 17:45:49;;;;;;;1.50;0.73;;;;;;;28.62;16.67;100435.03;12184004;19;20112;-81
2022/07/17 17:49:50;;;;;;;;;;;;;;;28.45;16.80;100440.94;12203664;19;20006;-81
2022/07/17 17:53:52;;;;;;;1.73;0.80;;;;;;;28.30;16.90;100436.78;12214056;19;19930;-80
2022/07/17 17:57:54;;;;;;;1.97;0.93;;;;;;;28.14;17.04;100439.50;12191352;19;20010;-80
2022/07/17 18:01:56;;;;;;;1.60;0.90;;;;;;;27.99;17.62;100442.19;12201739;19;20235;-80
2022/07/17 18:05:58;;;;;;;2.15;0.90;;;;;;;27.90;17.80;100445.13;12209814;19;20270;-80
2022/07/17 18:09:59;;;;;;;2.53;0.88;;;;;;;27.88;17.43;100444.66;12176570;19;20490;-80
2022/07/17 18:14:02;;;;;;;1.00;0.80;;;;;;;27.81;18.25;100452.91;12201047;19;20024;-80
2022/07/17 18:18:04;;;;;;;3.95;0.85;;;;;;;27.77;18.27;100451.91;12201684;19;20051;-80
2022/07/17 18:22:06;;;;;;;1.45;1.00;;;;;;;27.72;18.34;100456.63;12186635;19;20720;-80
2022/07/17 18:26:07;;;;;;;1.17;0.80;;;;;;;27.64;18.67;100453.91;12206654;19;20010;-80
2022/07/17 18:30:10;;;;;;;4.43;0.90;;;;;;;27.63;19.10;100467.22;12209625;19;20267;-80
2022/07/17 18:34:12;;;;;;;1.45;0.77;;;;;;;27.44;19.47;100461.25;12177242;19;20031;-79
2022/07/17 18:38:13;;;;;;;3.67;1.17;;;;;;;27.20;19.57;100462.81;12202313;19;20406;-80